Saskatoon, Saskatchewan

9:36 AM CST on July 24, 2016 (GMT -0600)
Saskatoon-Diefenbaker International | | Change Station

Elev 1654 ft 52.17 °N, 106.69 °W | Updated 36 minutes ago

Partly Cloudy
Partly Cloudy
66 °F
Feels Like 66 °F
N
9
Wind Variable Wind from NW

Today
High -- | Low -- °F
--% Chance of Precip.
Yesterday
High -- | Low -- °F
Precip. -- in
Pressure 30.00 in
Visibility 15.0 miles
Clouds Few 25000 ft
Dew Point 54 °F
Humidity 64%
Rainfall 0.00 in
Snow Depth Not available.
5:16 AM 9:08 PM
Waning Gibbous, 75% visible
METAR CYXE 241500Z 31008KT 15SM FEW250 19/12 A2998 RMK CI1 SLP159 DENSITY ALT 2300FT
Pressure 30.00 in
Visibility 15.0 miles
Clouds Few 25000 ft
Dew Point 54 °F
Humidity 64%
Rainfall 0.00 in
Snow Depth Not available.
5:16 AM 9:08 PM
Waning Gibbous, 75% visible
METAR CYXE 241500Z 31008KT 15SM FEW250 19/12 A2998 RMK CI1 SLP159 DENSITY ALT 2300FT

10-Day Weather Forecast

Almanac

Astronomy

Jul. 24, 2016 Rise Set
Actual Time
Civil Twilight
Nautical Twilight
Astronomical Twilight
Moon
Length of Visible Light
Length of Day
Tomorrow will be .
, % of the Moon is Illuminated

Today's Extremes

Country Highs Country Lows

Community

WunderPhotos

Upload Photos

1,927,092 photos uploaded!

WunderBlog® & News

Nearby

Air Quality

  Air Quality AQ Index Pollutant
Not available.

Snow Depth

Station Depth Elevation

Earthquake Activity

City Distance Mag. Time & Date
Minimum magnitude displayed is 2.5.

Coastal Water Temperatures

Place Temperature

Stations

Nearby Weather Stations

Station Location Temp. Windchill Dew Point Humidity Wind Precip. Elev Updated Type
                   

Watches & Warnings

There are currently no watches in effect.